createdAt,value
2018-02-20T00:27:13.432Z,45.53
2018-02-20T00:33:00.555Z,40.93
2018-02-20T00:35:30.511Z,41.07
2018-02-20T00:46:55.420Z,42.20
2018-02-20T00:49:26.031Z,39.63
2018-02-20T00:51:55.931Z,38.27
2018-02-20T00:54:25.970Z,41.83
2018-02-20T00:56:55.909Z,42.67
2018-02-20T00:59:25.757Z,44.20
2018-02-20T01:01:55.637Z,40.83
2018-02-20T01:04:25.508Z,39.73
2018-02-20T01:06:55.396Z,43.60
2018-02-20T01:09:25.249Z,42.27
2018-02-20T01:11:55.087Z,42.60
2018-02-20T01:14:24.931Z,43.87
2018-02-20T01:16:54.772Z,42.23
2018-02-20T01:19:35.914Z,44.13
2018-02-20T01:24:50.960Z,42.37
2018-02-20T01:30:26.981Z,41.20
2018-02-20T01:44:56.589Z,42.00
2018-02-20T01:47:26.517Z,39.73
2018-02-20T01:55:58.126Z,40.10
2018-02-20T01:58:28.162Z,41.23
2018-02-20T02:00:58.885Z,42.60
2018-02-20T02:03:28.878Z,42.40
2018-02-20T02:05:58.897Z,43.30
2018-02-20T02:08:28.939Z,41.77
2018-02-20T02:10:58.996Z,41.13
2018-02-20T02:13:29.064Z,43.37
2018-02-20T02:15:59.091Z,42.37
2018-02-20T02:24:30.011Z,40.20
2018-02-20T02:26:59.948Z,37.17
2018-02-20T02:44:45.858Z,41.40
2018-02-20T02:47:15.808Z,40.90
2018-02-20T03:13:44.339Z,43.17
2018-02-20T03:16:14.321Z,41.93
2018-02-20T03:30:34.868Z,38.60
2018-02-20T03:33:04.795Z,43.07
2018-02-20T03:35:34.813Z,38.77
2018-02-20T03:41:10.720Z,41.50
2018-02-20T03:43:40.690Z,40.70
2018-02-20T03:46:10.614Z,42.43
2018-02-20T04:00:32.938Z,41.10
2018-02-20T04:03:02.926Z,41.40
2018-02-20T04:05:33.121Z,42.43
2018-02-20T04:08:24.593Z,43.33
2018-02-20T04:10:54.655Z,43.30
2018-02-20T04:13:24.759Z,43.47
2018-02-20T04:15:54.698Z,44.23
2018-02-20T04:24:21.674Z,44.73
2018-02-20T04:26:51.611Z,44.57
2018-02-20T04:41:36.783Z,43.87
2018-02-20T05:04:54.452Z,42.00
2018-02-20T05:19:46.377Z,42.70
2018-02-20T05:22:17.620Z,43.77
2018-02-20T05:24:48.558Z,47.70
2018-02-20T05:27:18.924Z,43.03
2018-02-20T05:35:51.362Z,40.93
2018-02-20T06:04:57.284Z,44.50
2018-02-20T06:16:11.947Z,42.57
2018-02-20T06:18:41.858Z,46.57
2018-02-20T06:21:11.966Z,42.57
2018-02-20T06:23:42.187Z,43.37
2018-02-20T06:26:12.370Z,43.83
2018-02-20T06:28:42.616Z,43.13
2018-02-20T06:31:12.822Z,44.50
2018-02-20T06:33:44.075Z,44.83
2018-02-20T06:36:14.127Z,45.23
2018-02-20T06:53:47.815Z,44.27
2018-02-20T06:56:18.259Z,44.37
2018-02-20T07:59:28.710Z,40.60
2018-02-20T08:01:58.588Z,40.00
2018-02-20T08:04:28.665Z,43.57
2018-02-20T08:06:58.649Z,39.67
2018-02-20T08:09:28.509Z,39.57
2018-02-20T08:11:58.365Z,42.53
2018-02-20T08:14:28.530Z,39.37
2018-02-20T08:16:58.549Z,39.03
2018-02-20T08:19:28.491Z,40.63
2018-02-20T08:21:58.714Z,38.77
2018-02-20T08:24:28.572Z,39.53
2018-02-20T08:26:58.518Z,39.17
2018-02-20T08:29:29.136Z,40.93
2018-02-20T08:31:59.031Z,38.37
2018-02-20T08:34:29.523Z,40.30
2018-02-20T08:36:59.377Z,40.40
2018-02-20T08:39:29.295Z,40.70
2018-02-20T08:41:59.150Z,42.27
2018-02-20T08:44:29.020Z,41.53
2018-02-20T08:46:59.707Z,41.30
2018-02-20T08:49:30.404Z,41.80
2018-02-20T08:52:00.351Z,42.10
2018-02-20T08:54:30.347Z,36.50
2018-02-20T08:57:00.203Z,39.53
2018-02-20T08:59:30.219Z,36.53
2018-02-20T09:02:10.676Z,39.67
2018-02-20T09:04:53.019Z,40.60
2018-02-20T09:27:39.351Z,32.70
2018-02-20T09:30:09.353Z,32.53
2018-02-20T09:32:39.202Z,35.07
2018-02-20T09:35:09.131Z,30.90
2018-02-20T09:37:39.037Z,31.83
2018-02-20T09:40:08.983Z,33.00
2018-02-20T09:42:38.846Z,34.10
2018-02-20T09:45:08.720Z,32.20
2018-02-20T09:47:38.582Z,31.33
2018-02-20T09:50:08.445Z,29.13
2018-02-20T09:52:38.383Z,30.20
2018-02-20T09:55:08.221Z,27.80
2018-02-20T09:57:38.165Z,27.60
2018-02-20T10:00:08.023Z,28.27
2018-02-20T10:02:37.901Z,29.43
2018-02-20T10:05:07.736Z,28.50
2018-02-20T10:07:37.586Z,28.03
2018-02-20T10:10:08.124Z,27.60
2018-02-20T10:12:37.985Z,28.43
2018-02-20T10:15:07.913Z,28.63
2018-02-20T10:17:37.764Z,29.23
2018-02-20T10:20:07.641Z,29.37
2018-02-20T10:34:30.312Z,27.83
2018-02-20T10:37:01.445Z,25.53
2018-02-20T10:39:41.936Z,23.73
2018-02-20T10:42:12.110Z,26.43
2018-02-20T10:44:42.256Z,26.17
2018-02-20T10:47:18.089Z,27.70
2018-02-20T10:49:51.664Z,26.70
2018-02-20T11:02:26.028Z,23.87
2018-02-20T11:05:27.026Z,28.63
2018-02-20T11:22:51.618Z,29.60
2018-02-20T11:25:21.607Z,33.90
2018-02-20T11:27:52.058Z,33.50
2018-02-20T11:30:21.991Z,33.93
2018-02-20T11:32:52.009Z,34.07
2018-02-20T11:35:21.998Z,34.77
2018-02-20T11:37:52.024Z,35.70
2018-02-20T11:40:22.086Z,35.67
2018-02-20T11:42:52.041Z,30.73
2018-02-20T11:45:22.262Z,34.17
2018-02-20T11:47:52.319Z,33.30
2018-02-20T11:50:22.194Z,31.63
2018-02-20T11:52:52.061Z,36.80
2018-02-20T11:55:21.947Z,36.10
2018-02-20T11:57:52.588Z,34.10
2018-02-20T12:00:22.560Z,32.80
2018-02-20T12:02:52.768Z,33.50
2018-02-20T12:05:23.660Z,38.00
2018-02-20T12:07:53.590Z,35.87
2018-02-20T12:10:23.654Z,34.07
2018-02-20T12:12:53.930Z,34.57
2018-02-20T12:15:23.878Z,34.27
2018-02-20T12:17:53.916Z,37.30
2018-02-20T12:20:23.920Z,28.37
2018-02-20T12:22:54.221Z,35.60
2018-02-20T12:25:24.938Z,35.50
2018-02-20T12:27:55.187Z,33.80
2018-02-20T12:30:25.024Z,36.17
2018-02-20T12:32:55.290Z,30.27
2018-02-20T12:35:25.304Z,36.20
2018-02-20T12:37:55.510Z,34.60
2018-02-20T12:40:25.398Z,34.90
2018-02-20T12:42:55.274Z,35.13
2018-02-20T12:45:25.263Z,38.60
2018-02-20T12:57:10.487Z,30.00
2018-02-20T12:59:40.380Z,26.23
2018-02-20T13:02:10.334Z,31.87
2018-02-20T13:04:40.194Z,31.50
2018-02-20T13:07:10.169Z,30.67
2018-02-20T13:09:41.081Z,33.70
2018-02-20T13:12:11.048Z,32.37
2018-02-20T13:14:41.200Z,32.73
2018-02-20T13:17:11.045Z,34.27
2018-02-20T13:19:40.952Z,33.87
2018-02-20T13:22:11.769Z,28.53
2018-02-20T13:24:41.668Z,34.50
2018-02-20T13:27:11.568Z,33.80
2018-02-20T13:29:41.438Z,29.57
2018-02-20T13:32:11.985Z,31.07
2018-02-20T13:34:41.884Z,25.10
2018-02-20T13:37:11.848Z,28.57
2018-02-20T13:39:41.834Z,32.13
2018-02-20T13:42:12.197Z,32.93
2018-02-20T13:44:42.120Z,31.07
2018-02-20T13:47:12.116Z,28.00
2018-02-20T13:49:42.018Z,32.73
2018-02-20T13:52:11.870Z,29.77
2018-02-20T13:54:41.746Z,29.57
2018-02-20T13:57:11.676Z,31.87
2018-02-20T13:59:41.605Z,28.07
2018-02-20T14:02:11.430Z,28.77
2018-02-20T14:04:41.768Z,30.70
2018-02-20T14:07:11.615Z,30.23
2018-02-20T14:09:41.820Z,31.77
2018-02-20T14:12:11.829Z,29.80
2018-02-20T14:14:43.139Z,30.10
2018-02-20T14:17:13.023Z,26.27
2018-02-20T14:19:43.161Z,18.60
2018-02-20T14:22:13.048Z,30.57
2018-02-20T14:24:43.196Z,29.80
2018-02-20T14:27:13.016Z,24.87
2018-02-20T14:29:43.082Z,28.03
2018-02-20T14:32:12.978Z,31.47
2018-02-20T14:34:42.996Z,27.33
2018-02-20T14:37:13.046Z,28.27
2018-02-20T14:39:42.983Z,29.90
2018-02-20T14:42:13.542Z,28.77
2018-02-20T14:44:43.658Z,30.80
2018-02-20T14:47:13.682Z,28.20
2018-02-20T14:49:43.613Z,30.50
2018-02-20T14:52:13.487Z,31.50
2018-02-20T14:54:43.338Z,28.07
2018-02-20T14:57:13.232Z,27.20
2018-02-20T14:59:43.136Z,30.37
2018-02-20T15:02:13.052Z,28.70
2018-02-20T15:04:42.942Z,34.13
2018-02-20T15:07:12.813Z,26.43
2018-02-20T15:09:42.797Z,33.00
2018-02-20T15:12:12.680Z,32.93
2018-02-20T15:14:42.552Z,32.77
2018-02-20T15:17:12.409Z,33.87
2018-02-20T15:19:42.349Z,29.37
2018-02-20T15:22:12.250Z,27.07
2018-02-20T15:24:42.209Z,31.47
2018-02-20T15:27:12.182Z,32.50
2018-02-20T15:29:42.086Z,31.27
2018-02-20T15:32:12.022Z,32.07
2018-02-20T15:34:43.009Z,28.93
2018-02-20T15:37:13.021Z,25.20
2018-02-20T15:39:42.853Z,32.20
2018-02-20T15:42:12.759Z,29.60
2018-02-20T15:44:42.622Z,30.93
2018-02-20T15:47:12.832Z,31.97
2018-02-20T15:49:42.724Z,30.30
2018-02-20T15:52:12.863Z,22.70
2018-02-20T15:54:42.712Z,32.37
2018-02-20T15:57:12.652Z,30.40
2018-02-20T15:59:42.546Z,31.50
2018-02-20T16:02:12.417Z,31.40
2018-02-20T16:04:42.393Z,34.27
2018-02-20T16:07:12.316Z,32.80
2018-02-20T16:09:42.485Z,35.47
2018-02-20T16:12:12.476Z,34.87
2018-02-20T16:14:42.372Z,31.37
2018-02-20T16:17:12.503Z,32.60
2018-02-20T16:19:42.372Z,29.33
2018-02-20T16:22:12.318Z,28.50
2018-02-20T16:24:42.209Z,32.00
2018-02-20T16:27:12.107Z,30.50
2018-02-20T16:29:42.069Z,33.37
2018-02-20T16:32:12.730Z,29.40
2018-02-20T16:34:42.794Z,31.50
2018-02-20T16:37:12.666Z,34.77
2018-02-20T16:39:42.880Z,33.10
2018-02-20T16:42:12.728Z,32.20
2018-02-20T16:44:42.638Z,31.30
2018-02-20T16:47:12.546Z,30.30
2018-02-20T16:49:42.404Z,29.77
2018-02-20T16:52:12.238Z,33.30
2018-02-20T16:54:42.338Z,32.90
2018-02-20T16:57:12.192Z,31.00
2018-02-20T16:59:42.107Z,31.73
2018-02-20T17:02:11.966Z,32.30
2018-02-20T17:04:42.136Z,32.17
2018-02-20T17:07:21.921Z,33.70
2018-02-20T17:09:54.127Z,32.17
2018-02-20T17:12:24.025Z,33.67
2018-02-20T17:14:53.910Z,31.87
2018-02-20T17:17:23.891Z,26.63
2018-02-20T17:19:53.811Z,32.53
2018-02-20T17:22:23.807Z,34.00
2018-02-20T17:24:53.741Z,33.20
2018-02-20T17:27:23.991Z,32.50
2018-02-20T17:29:53.837Z,32.00
2018-02-20T17:32:23.876Z,30.30
2018-02-20T17:34:53.732Z,32.17
2018-02-20T17:37:24.082Z,27.20
2018-02-20T17:39:53.923Z,30.30
2018-02-20T17:42:24.422Z,28.77
2018-02-20T17:44:54.314Z,32.22
2018-02-20T17:47:25.554Z,31.97
2018-02-20T17:49:56.471Z,31.70
2018-02-20T17:52:27.096Z,29.17
2018-02-20T17:54:56.969Z,28.70
2018-02-20T17:57:26.905Z,28.17
2018-02-20T17:59:56.764Z,26.77
2018-02-20T18:02:26.678Z,28.03
2018-02-20T18:04:56.516Z,27.27
2018-02-20T18:07:26.373Z,27.90
2018-02-20T18:09:56.232Z,28.40
2018-02-20T18:12:26.118Z,28.90
2018-02-20T18:14:55.960Z,28.20
2018-02-20T18:17:25.808Z,25.20
2018-02-20T18:19:56.097Z,28.70
2018-02-20T18:22:26.047Z,30.70
2018-02-20T18:24:55.993Z,30.60
2018-02-20T18:27:25.916Z,30.00
2018-02-20T18:29:56.187Z,30.50
2018-02-20T18:32:26.058Z,32.10
2018-02-20T18:34:56.031Z,30.40
2018-02-20T18:37:26.027Z,29.40
2018-02-20T18:39:55.971Z,31.20
2018-02-20T18:42:25.833Z,30.50
2018-02-20T18:44:56.161Z,30.60
2018-02-20T18:47:26.666Z,30.37
2018-02-20T18:49:56.559Z,31.30
2018-02-20T18:52:26.422Z,32.47
2018-02-20T18:54:56.332Z,31.97
2018-02-20T18:57:26.197Z,29.80
2018-02-20T18:59:56.475Z,30.17
2018-02-20T19:02:26.366Z,32.73
2018-02-20T19:04:56.580Z,31.73
2018-02-20T19:07:26.488Z,32.63
2018-02-20T19:09:56.549Z,32.07
2018-02-20T19:12:26.559Z,29.33
2018-02-20T19:14:56.474Z,32.30
2018-02-20T19:17:26.305Z,28.00
2018-02-20T19:19:56.456Z,31.80
2018-02-20T19:22:26.564Z,32.20
2018-02-20T19:24:56.602Z,28.53
2018-02-20T19:27:26.461Z,31.70
2018-02-20T19:29:56.451Z,29.23
2018-02-20T19:32:26.336Z,29.63
2018-02-20T19:34:56.246Z,31.07
2018-02-20T19:37:26.170Z,32.57
2018-02-20T19:39:56.188Z,31.00
2018-02-20T19:42:26.299Z,33.30
2018-02-20T19:44:56.138Z,31.10
2018-02-20T19:47:26.881Z,31.70
2018-02-20T19:49:56.778Z,28.53
2018-02-20T19:52:26.743Z,29.90
2018-02-20T19:54:56.582Z,32.10
2018-02-20T19:57:26.593Z,31.80
2018-02-20T19:59:56.559Z,30.60
2018-02-20T20:02:26.427Z,29.60
2018-02-20T20:04:56.267Z,32.30
2018-02-20T20:07:26.194Z,29.70
2018-02-20T20:09:56.100Z,33.97
2018-02-20T20:12:25.993Z,32.17
2018-02-20T20:14:55.857Z,34.57
2018-02-20T20:17:25.716Z,32.23
2018-02-20T20:19:55.607Z,32.50
2018-02-20T20:22:25.534Z,32.73
2018-02-20T20:24:55.410Z,35.43
2018-02-20T20:27:25.336Z,33.90
2018-02-20T20:29:55.203Z,34.40
2018-02-20T20:32:25.097Z,34.60
2018-02-20T20:34:54.974Z,34.93
2018-02-20T20:37:24.881Z,33.50
2018-02-20T20:39:54.751Z,33.80
2018-02-20T20:42:24.653Z,33.03
2018-02-20T20:44:54.548Z,31.27
2018-02-20T20:47:24.483Z,33.10
2018-02-20T20:49:54.366Z,34.43
2018-02-20T20:52:24.303Z,29.53
2018-02-20T20:54:54.200Z,33.33
2018-02-20T20:57:24.046Z,30.90
2018-02-20T20:59:53.959Z,30.00
2018-02-20T21:02:23.850Z,30.70
2018-02-20T21:04:53.704Z,30.20
2018-02-20T21:07:23.879Z,27.67
2018-02-20T21:09:53.769Z,28.17
2018-02-20T21:12:23.595Z,28.63
2018-02-20T21:14:53.479Z,31.00
2018-02-20T21:17:23.335Z,29.53
2018-02-20T21:19:53.685Z,26.07
2018-02-20T21:22:23.570Z,27.50
2018-02-20T21:24:53.503Z,27.77
2018-02-20T21:27:23.375Z,29.10
2018-02-20T21:29:53.276Z,26.20
2018-02-20T21:32:23.213Z,27.93
2018-02-20T21:34:53.167Z,28.80
2018-02-20T21:37:23.021Z,29.10
2018-02-20T21:39:52.885Z,26.93
2018-02-20T21:42:22.905Z,27.53
2018-02-20T21:44:52.729Z,27.00
2018-02-20T21:47:22.665Z,26.20
2018-02-20T21:49:52.560Z,27.43
2018-02-20T21:52:22.417Z,25.63
2018-02-20T21:54:52.286Z,28.60
2018-02-20T21:57:22.154Z,27.97
2018-02-20T21:59:52.020Z,26.77
2018-02-20T22:02:21.910Z,27.97
2018-02-20T22:04:51.733Z,26.97
2018-02-20T22:07:21.562Z,27.07
2018-02-20T22:09:51.446Z,25.97
2018-02-20T22:12:21.317Z,25.60
2018-02-20T22:14:51.320Z,24.27
2018-02-20T22:17:21.181Z,24.97
2018-02-20T22:19:51.055Z,24.63
2018-02-20T22:22:21.157Z,24.90
2018-02-20T22:24:51.047Z,24.30
2018-02-20T22:27:21.031Z,26.27
2018-02-20T22:29:50.904Z,23.07
2018-02-20T22:32:20.879Z,26.80
2018-02-20T22:34:50.812Z,26.20
2018-02-20T22:37:20.783Z,24.70
2018-02-20T22:39:50.711Z,24.77
2018-02-20T22:42:20.566Z,25.70
2018-02-20T22:44:50.673Z,23.30
2018-02-20T22:47:20.493Z,26.50
2018-02-20T22:49:50.679Z,22.77
2018-02-20T22:52:20.534Z,24.80
2018-02-20T22:54:50.809Z,23.47
2018-02-20T22:57:20.658Z,26.00
2018-02-20T22:59:50.830Z,23.70
2018-02-20T23:02:20.709Z,25.10
2018-02-20T23:04:50.600Z,23.47
2018-02-20T23:07:20.437Z,23.90
2018-02-20T23:09:50.606Z,25.00
2018-02-20T23:12:20.460Z,23.73
2018-02-20T23:14:50.624Z,23.60
2018-02-20T23:17:20.477Z,23.20
2018-02-20T23:19:50.355Z,23.77
2018-02-20T23:22:20.244Z,24.47
2018-02-20T23:24:50.187Z,22.77
2018-02-20T23:27:20.129Z,24.33
2018-02-20T23:29:49.995Z,24.90
2018-02-20T23:32:19.832Z,24.17
2018-02-20T23:34:49.699Z,24.97
2018-02-20T23:37:19.592Z,24.93
2018-02-20T23:39:49.435Z,23.90
2018-02-20T23:42:19.340Z,24.23
2018-02-20T23:44:49.178Z,25.07
2018-02-20T23:47:19.110Z,24.43
2018-02-20T23:49:48.961Z,22.30
2018-02-20T23:52:18.803Z,24.67
2018-02-20T23:54:48.837Z,24.83
2018-02-20T23:57:18.746Z,24.97
2018-02-20T23:59:48.872Z,24.60
